Time;durP1;ratioP1;P1;durP2;ratioP2;P2;SDS_P1;SDS_P2;PMS_P1;PMS_P2;Temp;Humidity;BMP_temperature;BMP_pressure;BME280_temperature;BME280_humidity;BME280_pressure;Samples;Min_cycle;Max_cycle;Signal;HPM_P1;HPM_P2
2023/05/28 00:00:10;;;;;;;8.85;3.35;;;13.70;93.80;;;;;;4981738;28;20537;-65
2023/05/28 00:02:36;;;;;;;8.80;2.90;;;13.60;94.10;;;;;;4980970;28;20034;-64
2023/05/28 00:05:03;;;;;;;8.52;3.53;;;13.50;94.30;;;;;;4982878;28;20135;-64
2023/05/28 00:07:28;;;;;;;8.57;3.08;;;13.50;94.40;;;;;;4956770;28;20514;-66
2023/05/28 00:09:55;;;;;;;4.88;2.50;;;13.50;94.70;;;;;;4962927;28;20090;-65
2023/05/28 00:12:21;;;;;;;8.07;3.10;;;13.40;95.00;;;;;;4977180;28;20023;-65
2023/05/28 00:14:47;;;;;;;7.18;3.20;;;13.30;95.20;;;;;;4964843;28;20065;-65
2023/05/28 00:17:13;;;;;;;11.63;3.15;;;13.30;95.20;;;;;;4979163;28;20054;-65
2023/05/28 00:19:40;;;;;;;9.38;3.15;;;13.20;95.40;;;;;;4988802;28;20034;-64
2023/05/28 00:22:05;;;;;;;10.85;2.83;;;13.20;95.90;;;;;;4985019;28;20030;-65
2023/05/28 00:24:31;;;;;;;8.73;3.42;;;13.20;95.60;;;;;;4989729;28;20074;-65
2023/05/28 00:26:56;;;;;;;8.45;2.78;;;13.20;95.60;;;;;;4990043;28;20019;-65
2023/05/28 00:29:24;;;;;;;9.95;3.70;;;13.10;96.40;;;;;;4985495;28;20034;-65
2023/05/28 00:31:51;;;;;;;11.23;4.05;;;13.00;96.60;;;;;;4989085;28;20018;-65
2023/05/28 00:34:16;;;;;;;8.38;3.08;;;12.90;96.90;;;;;;4988062;28;20022;-65
2023/05/28 00:36:42;;;;;;;7.78;3.25;;;12.80;97.40;;;;;;4984983;28;20045;-65
2023/05/28 00:39:07;;;;;;;11.75;4.00;;;12.70;98.30;;;;;;4982823;28;20034;-65
2023/05/28 00:41:36;;;;;;;9.02;3.22;;;12.60;99.10;;;;;;4983763;28;20393;-65
2023/05/28 00:44:02;;;;;;;8.63;3.30;;;12.40;99.70;;;;;;4985065;28;20030;-65
2023/05/28 00:46:29;;;;;;;8.77;3.33;;;12.40;99.90;;;;;;4986966;28;20093;-65
2023/05/28 00:48:55;;;;;;;8.85;3.40;;;12.20;99.90;;;;;;4969727;28;20124;-65
2023/05/28 00:51:20;;;;;;;11.07;3.20;;;12.20;99.90;;;;;;4979981;28;21910;-65
2023/05/28 00:53:46;;;;;;;7.68;3.28;;;12.10;99.90;;;;;;4982136;28;20029;-65
2023/05/28 00:56:12;;;;;;;10.60;3.42;;;12.00;99.90;;;;;;4984074;28;20672;-65
2023/05/28 00:58:42;;;;;;;9.07;3.00;;;12.00;99.90;;;;;;4979706;28;20030;-65
2023/05/28 01:01:09;;;;;;;16.15;3.67;;;12.00;99.90;;;;;;4982230;28;20054;-66
2023/05/28 01:03:38;;;;;;;12.05;3.63;;;12.00;99.90;;;;;;4973202;28;20403;-65
2023/05/28 01:06:07;;;;;;;6.78;3.40;;;12.00;99.90;;;;;;4982610;28;20022;-65
2023/05/28 01:08:33;;;;;;;12.02;3.15;;;11.90;99.90;;;;;;4984257;28;20038;-64
2023/05/28 01:11:00;;;;;;;7.07;3.35;;;11.80;99.90;;;;;;4988732;28;20034;-65
2023/05/28 01:13:26;;;;;;;7.90;3.33;;;11.70;99.90;;;;;;4987647;28;20022;-65
2023/05/28 01:15:51;;;;;;;11.82;3.60;;;11.60;99.90;;;;;;4982448;28;20030;-65
2023/05/28 01:18:17;;;;;;;10.07;4.07;;;11.50;99.90;;;;;;4985500;28;20034;-64
2023/05/28 01:20:43;;;;;;;8.65;3.22;;;11.40;99.90;;;;;;4980798;28;20062;-65
2023/05/28 01:23:13;;;;;;;10.30;3.45;;;11.40;99.90;;;;;;4981503;28;20030;-64
2023/05/28 01:25:38;;;;;;;8.60;3.95;;;11.30;99.90;;;;;;4982999;28;20053;-65
2023/05/28 01:28:13;;;;;;;17.13;4.28;;;11.30;99.90;;;;;;4985495;28;20521;-64
2023/05/28 01:30:40;;;;;;;7.90;3.20;;;11.30;99.90;;;;;;4973123;28;20054;-65
2023/05/28 01:33:06;;;;;;;7.50;3.47;;;11.20;99.90;;;;;;4985697;28;20050;-65
2023/05/28 01:35:32;;;;;;;10.02;3.78;;;11.20;99.90;;;;;;4984921;28;20315;-65
2023/05/28 01:38:01;;;;;;;9.77;3.70;;;11.10;99.90;;;;;;4984512;28;20045;-65
2023/05/28 01:40:27;;;;;;;9.63;4.63;;;11.00;99.90;;;;;;4979753;28;20038;-65
2023/05/28 01:42:55;;;;;;;8.98;4.40;;;11.00;99.90;;;;;;4968307;28;20096;-65
2023/05/28 01:45:22;;;;;;;11.40;3.97;;;10.90;99.90;;;;;;4979623;28;20031;-65
2023/05/28 01:47:48;;;;;;;11.48;3.75;;;10.80;99.90;;;;;;4978398;28;20567;-66
2023/05/28 01:50:14;;;;;;;16.48;5.32;;;10.80;99.90;;;;;;4981325;28;20377;-65
2023/05/28 01:52:40;;;;;;;13.25;4.72;;;10.70;99.90;;;;;;4982793;28;20018;-65
2023/05/28 01:55:08;;;;;;;12.68;5.25;;;10.70;99.90;;;;;;4988743;28;20050;-65
2023/05/28 01:57:34;;;;;;;14.40;4.15;;;10.70;99.90;;;;;;4980065;28;20030;-64
2023/05/28 02:00:00;;;;;;;13.63;4.80;;;10.70;99.90;;;;;;4981764;28;20034;-65
2023/05/28 02:02:26;;;;;;;9.73;3.88;;;10.60;99.90;;;;;;4986822;28;20555;-65
2023/05/28 02:04:53;;;;;;;9.00;4.18;;;10.50;99.90;;;;;;4987605;28;20211;-65
2023/05/28 02:07:19;;;;;;;7.53;4.15;;;10.40;99.90;;;;;;4987624;28;20030;-65
2023/05/28 02:09:45;;;;;;;12.20;4.10;;;10.40;99.90;;;;;;4990941;28;20400;-64
2023/05/28 02:12:11;;;;;;;13.32;4.10;;;10.30;99.90;;;;;;4983516;28;20779;-65
2023/05/28 02:14:37;;;;;;;14.02;3.63;;;10.30;99.90;;;;;;4983368;28;20113;-64
2023/05/28 02:17:03;;;;;;;10.07;3.80;;;10.20;99.90;;;;;;4984143;28;20125;-65
2023/05/28 02:19:28;;;;;;;9.05;3.60;;;10.20;99.90;;;;;;4968305;28;20041;-64
2023/05/28 02:21:55;;;;;;;12.95;4.38;;;10.20;99.90;;;;;;4985844;28;20117;-65
2023/05/28 02:24:21;;;;;;;9.68;4.47;;;10.20;99.90;;;;;;4982928;28;20121;-65
2023/05/28 02:26:47;;;;;;;7.22;4.15;;;10.20;99.90;;;;;;4985011;28;20034;-65
2023/05/28 02:29:13;;;;;;;9.07;3.58;;;10.20;99.90;;;;;;4983295;28;20022;-63
2023/05/28 02:31:39;;;;;;;8.32;4.07;;;10.20;99.90;;;;;;4978622;28;20101;-64
2023/05/28 02:34:05;;;;;;;7.45;4.28;;;10.20;99.90;;;;;;4986943;28;20027;-65
2023/05/28 02:36:32;;;;;;;8.40;4.05;;;10.30;99.90;;;;;;4987733;28;20037;-65
2023/05/28 02:38:58;;;;;;;7.22;3.97;;;10.30;99.90;;;;;;4992054;28;20030;-65
2023/05/28 02:41:25;;;;;;;9.25;3.85;;;10.30;99.90;;;;;;4989006;28;20089;-64
2023/05/28 02:43:51;;;;;;;8.75;4.43;;;10.20;99.90;;;;;;4989867;28;20027;-65
2023/05/28 02:46:17;;;;;;;9.30;4.13;;;10.30;99.90;;;;;;4988241;28;20022;-65
2023/05/28 02:48:44;;;;;;;8.60;3.97;;;10.30;99.90;;;;;;4984538;28;20036;-64
2023/05/28 02:51:10;;;;;;;9.15;4.28;;;10.30;99.90;;;;;;4986388;28;20033;-65
2023/05/28 02:53:35;;;;;;;11.20;4.45;;;10.20;99.90;;;;;;4987224;28;20038;-65
2023/05/28 02:56:01;;;;;;;10.32;4.05;;;10.20;99.90;;;;;;4983795;28;20089;-64
2023/05/28 02:58:28;;;;;;;12.10;4.75;;;10.10;99.90;;;;;;4987127;28;20487;-65
2023/05/28 03:00:54;;;;;;;11.32;4.55;;;10.00;99.90;;;;;;4985370;28;20056;-65
2023/05/28 03:03:20;;;;;;;11.80;4.07;;;9.90;99.90;;;;;;4965008;28;20034;-64
2023/05/28 03:05:46;;;;;;;14.45;4.65;;;9.90;99.90;;;;;;4984660;28;20400;-64
2023/05/28 03:08:11;;;;;;;10.57;3.95;;;9.80;99.90;;;;;;4984437;28;20113;-65
2023/05/28 03:10:37;;;;;;;11.93;3.47;;;9.70;99.90;;;;;;4960034;28;20030;-65
2023/05/28 03:13:02;;;;;;;13.80;3.97;;;9.70;99.90;;;;;;4985485;28;20042;-64
2023/05/28 03:15:28;;;;;;;6.78;3.80;;;9.70;99.90;;;;;;4983669;28;20037;-64
2023/05/28 03:17:54;;;;;;;7.35;3.60;;;9.70;99.90;;;;;;4981347;28;20072;-64
2023/05/28 03:20:20;;;;;;;8.57;3.95;;;9.80;99.90;;;;;;4982959;28;20034;-65
2023/05/28 03:22:48;;;;;;;7.93;4.18;;;9.90;99.90;;;;;;4980855;28;20031;-65
2023/05/28 03:25:13;;;;;;;17.70;4.38;;;10.00;99.90;;;;;;4983699;28;20109;-64
2023/05/28 03:27:39;;;;;;;10.52;4.40;;;10.00;99.90;;;;;;4981746;28;20544;-65
2023/05/28 03:30:07;;;;;;;14.90;4.63;;;10.00;99.90;;;;;;4986280;28;20069;-65
2023/05/28 03:32:33;;;;;;;9.93;4.22;;;10.00;99.90;;;;;;4981074;28;20388;-65
2023/05/28 03:34:58;;;;;;;12.75;4.25;;;10.00;99.90;;;;;;4984287;28;20031;-65
2023/05/28 03:37:26;;;;;;;10.23;4.22;;;10.00;99.90;;;;;;4977833;28;20030;-65
2023/05/28 03:39:52;;;;;;;10.43;5.38;;;10.00;99.90;;;;;;4973035;28;20109;-64
2023/05/28 03:42:18;;;;;;;9.38;4.22;;;10.00;99.90;;;;;;4982894;28;20042;-64
2023/05/28 03:44:43;;;;;;;10.52;4.10;;;10.00;99.90;;;;;;4973665;28;20034;-65
2023/05/28 03:47:09;;;;;;;9.05;4.20;;;9.90;99.90;;;;;;4980130;28;20053;-65
2023/05/28 03:49:35;;;;;;;7.25;3.92;;;9.90;99.90;;;;;;4986835;28;20022;-65
2023/05/28 03:52:01;;;;;;;8.57;3.83;;;9.90;99.90;;;;;;4981114;28;20400;-64
2023/05/28 03:54:26;;;;;;;14.00;3.83;;;10.00;99.90;;;;;;4984628;28;20066;-65
2023/05/28 03:56:52;;;;;;;8.85;3.80;;;10.00;99.90;;;;;;4988996;28;20026;-65
2023/05/28 03:59:17;;;;;;;15.35;4.25;;;10.00;99.90;;;;;;4990247;28;20404;-66
2023/05/28 04:01:43;;;;;;;9.55;3.95;;;10.10;99.90;;;;;;4990978;28;20072;-65
2023/05/28 04:04:08;;;;;;;6.97;3.92;;;10.20;99.90;;;;;;4980524;28;20058;-65
2023/05/28 04:06:34;;;;;;;9.95;4.28;;;10.30;99.90;;;;;;4989144;28;20025;-66
2023/05/28 04:09:00;;;;;;;10.43;4.25;;;10.30;99.90;;;;;;4988787;28;20113;-65
2023/05/28 04:11:28;;;;;;;6.03;3.28;;;10.40;99.90;;;;;;4988739;28;20467;-65
2023/05/28 04:13:54;;;;;;;10.90;4.07;;;10.40;99.90;;;;;;4973281;28;20030;-66
2023/05/28 04:16:23;;;;;;;12.18;4.13;;;10.50;99.90;;;;;;4990368;28;20542;-66
2023/05/28 04:18:49;;;;;;;10.85;4.13;;;10.60;99.90;;;;;;4985890;28;20034;-66
2023/05/28 04:21:15;;;;;;;11.23;4.55;;;10.60;99.90;;;;;;4984476;28;20030;-62
2023/05/28 04:23:40;;;;;;;8.30;3.95;;;10.60;99.90;;;;;;4988035;28;20031;-65
2023/05/28 04:26:09;;;;;;;9.90;4.70;;;10.60;99.90;;;;;;4987858;28;20041;-66
2023/05/28 04:28:36;;;;;;;8.10;4.15;;;10.60;99.90;;;;;;4986964;28;20110;-66
2023/05/28 04:31:03;;;;;;;8.48;3.88;;;10.70;99.90;;;;;;4984105;28;20030;-65
2023/05/28 04:33:29;;;;;;;8.40;3.78;;;11.30;99.90;;;;;;4986712;28;20031;-66
2023/05/28 04:35:55;;;;;;;9.65;3.67;;;12.30;99.90;;;;;;4981170;28;20056;-65
2023/05/28 04:38:21;;;;;;;10.48;3.97;;;13.50;99.90;;;;;;4965615;28;20388;-63
2023/05/28 04:40:46;;;;;;;8.07;3.30;;;14.90;99.90;;;;;;4988095;28;20488;-65
2023/05/28 04:43:12;;;;;;;7.63;3.60;;;16.00;99.90;;;;;;4976105;28;20595;-65
2023/05/28 04:45:38;;;;;;;7.85;3.95;;;16.90;97.80;;;;;;4972933;28;20129;-66
2023/05/28 04:48:04;;;;;;;8.23;3.50;;;17.70;95.80;;;;;;4987402;28;20022;-66
2023/05/28 04:50:30;;;;;;;6.70;3.72;;;17.90;94.60;;;;;;4984071;28;20053;-65
2023/05/28 04:52:55;;;;;;;7.40;3.30;;;18.80;93.50;;;;;;4981564;28;20015;-65
2023/05/28 04:55:22;;;;;;;9.45;3.50;;;19.60;91.80;;;;;;4986410;28;20034;-64
2023/05/28 04:57:47;;;;;;;8.18;3.50;;;20.10;90.70;;;;;;4983106;28;20449;-65
2023/05/28 05:00:13;;;;;;;8.75;3.60;;;20.30;90.40;;;;;;4985362;28;20061;-64
2023/05/28 05:02:42;;;;;;;7.95;3.40;;;20.20;90.30;;;;;;4985025;28;20113;-65
2023/05/28 05:05:08;;;;;;;8.00;3.10;;;20.40;88.70;;;;;;4984214;28;20038;-64
2023/05/28 05:07:37;;;;;;;6.38;3.28;;;21.30;86.90;;;;;;4984077;28;20049;-64
2023/05/28 05:10:13;;;;;;;7.85;3.72;;;21.40;87.00;;;;;;4980179;28;20074;-65
2023/05/28 05:12:39;;;;;;;6.78;3.30;;;21.50;84.50;;;;;;4981052;28;20026;-64
2023/05/28 05:15:05;;;;;;;7.70;3.58;;;21.20;85.80;;;;;;4977694;28;20030;-64
2023/05/28 05:17:31;;;;;;;8.85;3.65;;;21.50;85.10;;;;;;4983748;28;20488;-65
2023/05/28 05:19:58;;;;;;;9.70;3.58;;;21.40;84.60;;;;;;4986278;28;20034;-64
2023/05/28 05:22:24;;;;;;;5.82;3.30;;;21.80;82.10;;;;;;4984521;28;20030;-64
2023/05/28 05:24:49;;;;;;;6.35;2.97;;;21.60;82.60;;;;;;4988668;28;20080;-64
2023/05/28 05:27:16;;;;;;;7.05;3.33;;;21.80;83.30;;;;;;4966650;28;20054;-63
2023/05/28 05:29:41;;;;;;;5.25;2.83;;;21.90;82.10;;;;;;4985562;28;20121;-65
2023/05/28 05:32:09;;;;;;;8.93;3.58;;;22.60;82.50;;;;;;4988290;28;20514;-64
2023/05/28 05:34:35;;;;;;;6.10;2.95;;;23.20;79.60;;;;;;4986163;28;20062;-65
2023/05/28 05:37:01;;;;;;;7.10;2.90;;;23.40;78.70;;;;;;4987311;28;20050;-65
2023/05/28 05:39:27;;;;;;;5.15;2.85;;;23.80;79.10;;;;;;4984801;28;20106;-65
2023/05/28 05:41:53;;;;;;;4.75;3.03;;;24.00;78.40;;;;;;4985998;28;20039;-64
2023/05/28 05:44:18;;;;;;;5.07;3.28;;;24.50;78.00;;;;;;4990493;28;20084;-65
2023/05/28 05:46:44;;;;;;;8.48;3.28;;;25.10;76.60;;;;;;4978719;28;20066;-64
2023/05/28 05:49:10;;;;;;;6.68;3.30;;;25.50;75.20;;;;;;4982243;28;20080;-65
2023/05/28 05:51:36;;;;;;;12.38;3.92;;;25.30;75.80;;;;;;4970814;28;20037;-64
2023/05/28 05:54:04;;;;;;;5.82;3.20;;;25.30;75.30;;;;;;4986772;28;20468;-65
2023/05/28 05:56:30;;;;;;;6.60;3.08;;;25.00;75.00;;;;;;4980777;28;20022;-64
2023/05/28 05:58:57;;;;;;;8.10;3.10;;;25.20;76.00;;;;;;4987585;28;20038;-65
2023/05/28 06:01:23;;;;;;;8.45;3.92;;;25.30;75.30;;;;;;4980518;28;20062;-65
2023/05/28 06:03:48;;;;;;;10.45;3.70;;;25.70;75.20;;;;;;4983809;28;20113;-65
2023/05/28 06:06:14;;;;;;;7.28;3.53;;;27.60;72.00;;;;;;4976161;28;20388;-65
2023/05/28 06:08:40;;;;;;;6.65;3.20;;;27.80;70.40;;;;;;4980165;28;20038;-64
2023/05/28 06:11:05;;;;;;;4.88;3.13;;;26.60;70.40;;;;;;4984690;28;20031;-65
2023/05/28 06:13:31;;;;;;;6.40;3.10;;;26.00;72.80;;;;;;4986010;28;20034;-65
2023/05/28 06:15:57;;;;;;;10.32;3.63;;;26.00;72.90;;;;;;4981585;28;20046;-65
2023/05/28 06:18:23;;;;;;;8.60;3.97;;;26.50;72.10;;;;;;4981875;28;20400;-65
2023/05/28 06:20:49;;;;;;;4.82;3.33;;;26.50;72.70;;;;;;4985798;28;20149;-64
2023/05/28 06:23:16;;;;;;;6.50;3.20;;;26.60;72.20;;;;;;4983269;28;20779;-64
2023/05/28 06:25:43;;;;;;;5.47;3.17;;;27.70;70.30;;;;;;4982167;28;20038;-65
2023/05/28 06:28:10;;;;;;;8.13;3.67;;;27.90;67.70;;;;;;4978088;28;20438;-65
2023/05/28 06:30:35;;;;;;;10.00;3.42;;;27.30;69.10;;;;;;4984845;28;20026;-65
2023/05/28 06:33:01;;;;;;;5.22;3.05;;;27.70;66.40;;;;;;4976017;28;20030;-65
2023/05/28 06:35:27;;;;;;;7.38;3.20;;;28.20;67.20;;;;;;4985046;28;20027;-65
2023/05/28 06:37:52;;;;;;;5.72;3.00;;;28.80;65.00;;;;;;4981865;28;20157;-65
2023/05/28 06:40:18;;;;;;;6.07;3.20;;;28.90;65.40;;;;;;4985440;28;20164;-66
2023/05/28 06:42:44;;;;;;;8.93;3.20;;;28.90;65.10;;;;;;4988550;28;20026;-65
2023/05/28 06:45:10;;;;;;;6.45;3.20;;;28.70;64.40;;;;;;4972466;28;20034;-66
2023/05/28 06:47:36;;;;;;;6.00;3.17;;;28.30;63.90;;;;;;4974653;28;20042;-65
2023/05/28 06:50:02;;;;;;;5.40;3.13;;;28.60;64.30;;;;;;4987934;28;20042;-65
2023/05/28 06:52:28;;;;;;;5.72;2.75;;;28.50;64.20;;;;;;4981718;28;20153;-66
2023/05/28 06:54:53;;;;;;;5.28;2.60;;;29.20;63.20;;;;;;4980750;28;20022;-65
2023/05/28 06:57:20;;;;;;;6.70;2.80;;;29.50;62.50;;;;;;4984552;28;20030;-64
2023/05/28 06:59:46;;;;;;;6.88;2.97;;;29.60;62.90;;;;;;4983537;28;20069;-65
2023/05/28 07:02:11;;;;;;;6.57;2.70;;;29.70;64.00;;;;;;4984114;28;20069;-66
2023/05/28 07:04:37;;;;;;;5.40;3.42;;;30.10;62.30;;;;;;4962179;28;20113;-65
2023/05/28 07:07:03;;;;;;;5.43;2.63;;;30.90;58.20;;;;;;4986820;28;20034;-65
2023/05/28 07:09:29;;;;;;;4.55;2.72;;;30.40;58.10;;;;;;4986072;28;20546;-65
2023/05/28 07:11:55;;;;;;;6.10;3.03;;;29.90;58.80;;;;;;4978431;28;20031;-65
2023/05/28 07:14:21;;;;;;;3.58;2.55;;;30.20;59.70;;;;;;4987328;28;20050;-66
2023/05/28 07:16:46;;;;;;;7.10;3.55;;;30.50;59.00;;;;;;4988857;28;20098;-65
2023/05/28 07:19:12;;;;;;;7.63;2.83;;;30.40;58.90;;;;;;4991097;28;20061;-66
2023/05/28 07:21:38;;;;;;;8.32;3.00;;;30.70;58.90;;;;;;4987927;28;20038;-65
2023/05/28 07:24:05;;;;;;;5.55;2.60;;;29.90;58.70;;;;;;4988316;28;20069;-65
2023/05/28 07:26:31;;;;;;;6.47;2.90;;;29.90;59.50;;;;;;4989555;28;20560;-66
2023/05/28 07:28:57;;;;;;;6.35;2.65;;;30.10;61.10;;;;;;4988079;28;20535;-65
2023/05/28 07:31:22;;;;;;;5.15;3.42;;;30.80;61.10;;;;;;4989011;28;20026;-66
2023/05/28 07:33:49;;;;;;;5.38;2.67;;;31.50;59.20;;;;;;4993322;28;20034;-65
2023/05/28 07:36:15;;;;;;;4.88;2.53;;;31.90;58.60;;;;;;4988001;28;20034;-65
2023/05/28 07:38:42;;;;;;;5.03;2.75;;;31.80;55.60;;;;;;4990723;28;20030;-65
2023/05/28 07:41:07;;;;;;;9.35;2.95;;;32.00;58.50;;;;;;4987656;28;20492;-66
2023/05/28 07:43:33;;;;;;;10.55;2.70;;;31.90;58.30;;;;;;4987593;28;20116;-65
2023/05/28 07:45:58;;;;;;;5.53;2.60;;;32.30;57.70;;;;;;4987163;28;20037;-65
2023/05/28 07:48:24;;;;;;;6.55;2.83;;;31.30;56.50;;;;;;4974375;28;20050;-66
2023/05/28 07:50:50;;;;;;;4.90;2.80;;;31.50;54.90;;;;;;4984979;28;20381;-66
2023/05/28 07:53:17;;;;;;;6.55;3.00;;;32.00;55.60;;;;;;4984213;28;20109;-63
2023/05/28 07:55:43;;;;;;;9.23;3.35;;;32.30;55.60;;;;;;4986353;28;20021;-66
2023/05/28 07:58:08;;;;;;;5.95;2.70;;;31.70;55.30;;;;;;4970295;28;20030;-65
2023/05/28 08:00:36;;;;;;;5.22;2.75;;;31.90;53.00;;;;;;4983129;28;20112;-66
2023/05/28 08:03:03;;;;;;;7.03;2.97;;;32.00;52.40;;;;;;4981758;28;20038;-67
2023/05/28 08:05:28;;;;;;;6.40;2.40;;;31.50;53.30;;;;;;4984039;28;20030;-65
2023/05/28 08:07:54;;;;;;;4.28;2.22;;;31.20;54.80;;;;;;4981094;28;20038;-66
2023/05/28 08:10:19;;;;;;;4.38;2.30;;;31.40;53.60;;;;;;4979358;28;20038;-65
2023/05/28 08:12:45;;;;;;;5.35;2.72;;;32.00;53.90;;;;;;4984290;28;20019;-66
2023/05/28 08:15:11;;;;;;;4.85;2.35;;;31.40;52.70;;;;;;4986846;28;20030;-66
2023/05/28 08:17:36;;;;;;;5.53;2.65;;;31.20;54.80;;;;;;4977607;28;20043;-65
2023/05/28 08:20:03;;;;;;;7.00;3.00;;;32.00;53.30;;;;;;4985787;28;20415;-65
2023/05/28 08:22:29;;;;;;;5.93;2.47;;;32.20;53.00;;;;;;4974616;28;20029;-65
2023/05/28 08:24:55;;;;;;;5.45;2.58;;;32.10;54.70;;;;;;4984222;28;20037;-65
2023/05/28 08:27:20;;;;;;;9.95;3.05;;;32.20;50.20;;;;;;4985356;28;20029;-65
2023/05/28 08:29:46;;;;;;;7.10;3.20;;;32.30;51.10;;;;;;4985573;28;20032;-65
2023/05/28 08:32:12;;;;;;;5.38;2.30;;;32.50;52.30;;;;;;4984704;28;20026;-65
2023/05/28 08:34:38;;;;;;;4.57;2.20;;;32.40;51.40;;;;;;4986352;28;20038;-64
2023/05/28 08:37:04;;;;;;;3.50;2.30;;;32.40;51.00;;;;;;4981155;28;20080;-65
2023/05/28 08:39:31;;;;;;;6.72;2.72;;;31.80;51.30;;;;;;4968548;28;21676;-64
2023/05/28 08:41:56;;;;;;;5.18;2.45;;;31.60;51.20;;;;;;4976054;28;20054;-64
2023/05/28 08:44:22;;;;;;;6.25;2.38;;;32.50;51.00;;;;;;4987598;28;20046;-65
2023/05/28 08:46:50;;;;;;;6.97;2.65;;;32.00;52.30;;;;;;4987566;28;20026;-65
2023/05/28 08:49:18;;;;;;;8.38;2.72;;;32.40;51.70;;;;;;4971704;28;20038;-65
2023/05/28 08:51:46;;;;;;;6.00;2.40;;;32.30;50.50;;;;;;4987854;28;20025;-65
2023/05/28 08:54:13;;;;;;;4.63;2.65;;;32.60;50.70;;;;;;4988552;28;20550;-65
2023/05/28 08:56:39;;;;;;;5.63;2.70;;;32.10;50.50;;;;;;4977806;28;20038;-65
2023/05/28 08:59:05;;;;;;;5.43;2.60;;;31.40;50.40;;;;;;4986128;28;20034;-65
2023/05/28 09:01:32;;;;;;;6.53;2.40;;;32.10;48.80;;;;;;4978662;28;20096;-67
2023/05/28 09:03:58;;;;;;;3.58;2.42;;;32.00;49.10;;;;;;4963018;28;20022;-64
2023/05/28 09:06:25;;;;;;;6.43;2.35;;;32.50;49.50;;;;;;4984181;28;20480;-66
2023/05/28 09:08:52;;;;;;;4.20;2.35;;;32.60;49.00;;;;;;4989057;28;21374;-66
2023/05/28 09:11:18;;;;;;;4.90;2.47;;;32.30;49.40;;;;;;4974338;28;20031;-63
2023/05/28 09:13:45;;;;;;;6.13;2.90;;;32.10;48.40;;;;;;4985696;28;20030;-66
2023/05/28 09:16:11;;;;;;;4.78;2.80;;;31.60;48.60;;;;;;4985877;28;20037;-66
2023/05/28 09:18:37;;;;;;;6.22;2.17;;;31.10;50.50;;;;;;4986230;28;20032;-66
2023/05/28 09:21:10;;;;;;;6.57;2.60;;;31.70;49.90;;;;;;4991072;28;20044;-65
2023/05/28 09:23:37;;;;;;;8.15;3.00;;;32.40;48.40;;;;;;4990042;28;20510;-66
2023/05/28 09:26:08;;;;;;;5.18;2.70;;;32.00;49.00;;;;;;4990845;28;20089;-65
2023/05/28 09:28:34;;;;;;;7.40;2.45;;;32.10;49.00;;;;;;4989698;28;20023;-66
2023/05/28 09:31:04;;;;;;;5.45;2.75;;;32.50;48.20;;;;;;4986200;28;20072;-66
2023/05/28 09:33:30;;;;;;;5.78;2.47;;;32.00;49.50;;;;;;4989311;28;20089;-66
2023/05/28 09:36:00;;;;;;;5.18;3.00;;;32.60;48.00;;;;;;4987395;28;20453;-66
2023/05/28 09:38:26;;;;;;;6.05;2.33;;;32.60;47.00;;;;;;4981754;28;20032;-66
2023/05/28 09:40:55;;;;;;;5.03;2.78;;;32.60;48.10;;;;;;4989486;28;20057;-65
2023/05/28 09:43:28;;;;;;;4.32;2.38;;;34.00;48.10;;;;;;4987835;28;20477;-64
2023/05/28 09:46:09;;;;;;;5.70;2.47;;;34.20;48.00;;;;;;4989832;28;20404;-65
2023/05/28 09:48:35;;;;;;;5.47;2.25;;;33.30;48.70;;;;;;4978244;28;20046;-65
2023/05/28 09:51:04;;;;;;;2.95;1.95;;;32.60;48.60;;;;;;4986412;28;20081;-66
2023/05/28 09:53:34;;;;;;;6.10;2.45;;;32.20;48.90;;;;;;4990701;28;20473;-66
2023/05/28 09:56:02;;;;;;;5.78;2.53;;;32.50;45.40;;;;;;4990047;28;20025;-66
2023/05/28 09:58:34;;;;;;;6.10;2.20;;;31.80;46.70;;;;;;4987017;28;20018;-66
2023/05/28 10:01:03;;;;;;;4.33;2.60;;;31.30;47.40;;;;;;4989615;28;20034;-65
2023/05/28 10:03:37;;;;;;;4.45;2.22;;;31.10;46.50;;;;;;4986606;28;21017;-66
2023/05/28 10:06:10;;;;;;;6.15;2.72;;;30.60;47.50;;;;;;4980419;28;20046;-65
2023/05/28 10:08:38;;;;;;;6.07;2.67;;;30.70;49.40;;;;;;4989062;28;20496;-66
2023/05/28 10:11:08;;;;;;;3.63;2.03;;;30.50;50.00;;;;;;4985553;28;20023;-65
2023/05/28 10:13:34;;;;;;;4.70;2.60;;;30.50;49.90;;;;;;4987003;28;20508;-65
2023/05/28 10:16:00;;;;;;;5.35;2.55;;;30.10;48.90;;;;;;4988480;28;20407;-65
2023/05/28 10:18:27;;;;;;;6.75;2.67;;;30.10;51.40;;;;;;4983039;28;20034;-65
2023/05/28 10:20:53;;;;;;;4.90;2.53;;;30.00;50.10;;;;;;4984408;28;20480;-65
2023/05/28 10:23:20;;;;;;;4.55;2.80;;;29.40;49.10;;;;;;4986601;28;20058;-62
2023/05/28 10:25:47;;;;;;;5.38;2.20;;;29.10;50.50;;;;;;4984824;28;20069;-65
2023/05/28 10:28:15;;;;;;;5.15;2.80;;;28.90;50.50;;;;;;4986416;28;20543;-64
2023/05/28 10:30:41;;;;;;;6.65;2.50;;;28.40;50.30;;;;;;4982804;28;20041;-65
2023/05/28 10:33:17;;;;;;;8.63;3.22;;;28.30;53.90;;;;;;4983348;28;20030;-65
2023/05/28 10:35:57;;;;;;;6.85;3.13;;;28.00;52.60;;;;;;4983164;28;20543;-65
2023/05/28 10:38:23;;;;;;;6.63;2.65;;;28.00;52.40;;;;;;4984521;28;20109;-65
2023/05/28 10:40:49;;;;;;;6.00;3.08;;;28.10;51.90;;;;;;4968735;28;20073;-64
2023/05/28 10:43:46;;;;;;;4.20;2.83;;;28.20;52.50;;;;;;4986516;28;21141;-64
2023/05/28 10:46:19;;;;;;;8.50;3.25;;;28.20;48.90;;;;;;4982475;28;20500;-64
2023/05/28 10:49:08;;;;;;;4.20;2.40;;;27.80;48.60;;;;;;4970900;28;20084;-65
2023/05/28 10:52:02;;;;;;;6.20;2.88;;;28.10;49.40;;;;;;4985885;28;20436;-65
2023/05/28 10:54:37;;;;;;;5.93;2.85;;;28.20;51.60;;;;;;4986209;28;20299;-64
2023/05/28 10:57:09;;;;;;;7.28;2.83;;;28.20;48.70;;;;;;4986168;28;20448;-65
2023/05/28 10:59:52;;;;;;;4.00;2.63;;;27.90;49.00;;;;;;4983938;28;20030;-65
2023/05/28 11:02:24;;;;;;;6.70;2.80;;;28.10;50.90;;;;;;4980355;28;20519;-65
2023/05/28 11:04:54;;;;;;;8.10;3.05;;;27.80;47.40;;;;;;4984819;28;20077;-64
2023/05/28 11:07:21;;;;;;;6.00;2.60;;;27.70;49.70;;;;;;4988275;28;20455;-65
2023/05/28 11:09:49;;;;;;;6.28;3.30;;;27.90;48.60;;;;;;4981942;28;20033;-64
2023/05/28 11:12:15;;;;;;;5.47;2.70;;;28.00;48.20;;;;;;4981934;28;20374;-65
2023/05/28 11:14:40;;;;;;;6.10;2.75;;;27.80;50.50;;;;;;4979946;28;20033;-64
2023/05/28 11:17:09;;;;;;;6.70;3.05;;;27.80;49.80;;;;;;4983943;28;20127;-64
2023/05/28 11:19:45;;;;;;;7.20;2.85;;;27.70;48.80;;;;;;4986037;28;20034;-64
2023/05/28 11:22:12;;;;;;;6.35;3.08;;;27.50;48.70;;;;;;4990282;28;20041;-64
2023/05/28 11:25:00;;;;;;;8.45;4.78;;;27.20;49.00;;;;;;4984082;28;20038;-64
2023/05/28 11:27:27;;;;;;;6.40;3.40;;;26.80;49.00;;;;;;4986432;28;20030;-64
2023/05/28 11:29:57;;;;;;;8.10;3.50;;;26.80;48.90;;;;;;4989080;28;20046;-64
2023/05/28 11:32:23;;;;;;;6.72;3.08;;;26.70;49.70;;;;;;4984421;28;20523;-65
2023/05/28 11:34:50;;;;;;;4.18;2.95;;;26.60;49.40;;;;;;4978361;28;20046;-64
2023/05/28 11:37:21;;;;;;;6.35;3.60;;;26.50;50.00;;;;;;4985044;28;20053;-64
2023/05/28 11:39:51;;;;;;;6.60;3.80;;;26.50;49.30;;;;;;4981828;28;20030;-64
2023/05/28 11:42:18;;;;;;;4.70;2.80;;;26.50;49.70;;;;;;4984145;28;20036;-65
2023/05/28 11:44:48;;;;;;;6.63;3.45;;;26.50;49.30;;;;;;4983244;28;20061;-65
2023/05/28 11:47:14;;;;;;;8.10;4.15;;;26.50;50.30;;;;;;4986483;28;20526;-65
2023/05/28 11:49:41;;;;;;;6.57;2.97;;;26.50;48.10;;;;;;4969168;28;20057;-65
2023/05/28 11:52:11;;;;;;;7.25;3.22;;;26.40;50.00;;;;;;4979904;28;20030;-65
2023/05/28 11:54:38;;;;;;;11.90;3.97;;;26.30;50.20;;;;;;4976527;28;20042;-65
2023/05/28 11:57:05;;;;;;;4.88;3.03;;;26.60;50.80;;;;;;4962046;28;20432;-65
2023/05/28 11:59:31;;;;;;;6.30;3.50;;;26.60;50.00;;;;;;4976060;28;20492;-64
2023/05/28 12:02:15;;;;;;;5.75;3.22;;;26.40;49.30;;;;;;4979086;28;20038;-64
2023/05/28 12:05:01;;;;;;;9.52;5.55;;;26.20;49.00;;;;;;4978612;28;20510;-65
2023/05/28 12:07:35;;;;;;;8.57;4.95;;;26.10;50.30;;;;;;4981532;28;20026;-65
2023/05/28 12:10:11;;;;;;;6.72;3.72;;;26.10;52.00;;;;;;4988656;28;20022;-64
2023/05/28 12:12:45;;;;;;;5.93;3.17;;;26.10;50.20;;;;;;4988496;28;20592;-65
2023/05/28 12:15:11;;;;;;;8.05;3.17;;;26.30;50.90;;;;;;4988295;28;20030;-64
2023/05/28 12:17:39;;;;;;;7.80;3.00;;;26.20;49.70;;;;;;4986340;28;20034;-64
2023/05/28 12:20:12;;;;;;;7.72;4.13;;;26.10;49.90;;;;;;4980730;28;20042;-64
2023/05/28 12:22:38;;;;;;;;;;;26.10;49.70;;;;;;4985070;28;20097;-65
2023/05/28 12:25:05;;;;;;;5.78;3.67;;;26.10;50.00;;;;;;4988139;28;19921;-64
2023/05/28 12:27:31;;;;;;;5.75;3.33;;;25.90;49.90;;;;;;4986740;28;20034;-65
2023/05/28 12:29:56;;;;;;;7.13;4.03;;;26.00;50.10;;;;;;4989086;28;20022;-65
2023/05/28 12:32:22;;;;;;;6.45;2.85;;;25.90;48.60;;;;;;4987475;28;20034;-64
2023/05/28 12:34:49;;;;;;;5.53;3.50;;;26.10;49.80;;;;;;4987064;28;20041;-65
2023/05/28 12:37:15;;;;;;;5.72;3.38;;;26.00;50.50;;;;;;4980054;28;20045;-64
2023/05/28 12:39:41;;;;;;;7.20;3.35;;;26.10;49.20;;;;;;4979007;28;20522;-64
2023/05/28 12:42:07;;;;;;;10.18;3.53;;;26.00;49.30;;;;;;4978341;28;20034;-64
2023/05/28 12:44:32;;;;;;;5.65;3.38;;;25.90;49.50;;;;;;4989935;28;20412;-65